Time;durP1;ratioP1;P1;durP2;ratioP2;P2;SDS_P1;SDS_P2;PMS_P1;PMS_P2;Temp;Humidity;BMP_temperature;BMP_pressure;BME280_temperature;BME280_humidity;BME280_pressure;Samples;Min_cycle;Max_cycle;Signal;HPM_P1;HPM_P2
2023/05/18 00:02:05;;;;;;;11.80;4.65;;;;;;;10.41;59.62;102651.38;5070736;28;20025;-67
2023/05/18 00:04:35;;;;;;;14.38;4.78;;;;;;;10.40;60.12;102653.19;5072200;28;20017;-67
2023/05/18 00:07:04;;;;;;;;;;;;;;;10.71;58.37;102651.25;5071967;28;20024;-67
2023/05/18 00:09:31;;;;;;;9.35;4.75;;;;;;;10.36;60.26;102648.91;5071846;28;19909;-67
2023/05/18 00:11:57;;;;;;;13.07;5.15;;;;;;;10.43;59.98;102649.56;5070627;28;20472;-67
2023/05/18 00:14:23;;;;;;;9.45;4.85;;;;;;;10.38;59.87;102649.72;5070664;28;20032;-67
2023/05/18 00:16:48;;;;;;;11.13;5.43;;;;;;;10.37;60.16;102647.09;5071639;28;20024;-67
2023/05/18 00:19:15;;;;;;;10.82;5.07;;;;;;;10.24;60.13;102658.13;5070730;28;20020;-67
2023/05/18 00:21:47;;;;;;;18.42;5.65;;;;;;;10.22;59.85;102654.63;5069745;28;20074;-67
2023/05/18 00:24:14;;;;;;;12.93;4.90;;;;;;;9.92;60.96;102650.28;5070709;28;20059;-67
2023/05/18 00:26:41;;;;;;;12.20;5.32;;;;;;;10.13;60.76;102651.41;5071801;28;20074;-67
2023/05/18 00:29:09;;;;;;;14.18;5.55;;;;;;;10.07;61.06;102652.47;5071948;28;20439;-67
2023/05/18 00:31:38;;;;;;;14.98;5.68;;;;;;;9.93;60.79;102650.22;5071608;28;20095;-67
2023/05/18 00:34:07;;;;;;;13.35;5.60;;;;;;;9.84;61.69;102654.97;5071924;28;20523;-67
2023/05/18 00:36:33;;;;;;;12.30;5.45;;;;;;;9.86;61.69;102656.66;5070822;28;20040;-67
2023/05/18 00:38:59;;;;;;;14.05;5.30;;;;;;;9.66;61.91;102648.44;5071769;28;20041;-67
2023/05/18 00:41:26;;;;;;;12.00;5.18;;;;;;;9.63;61.72;102652.06;5071667;28;20040;-67
2023/05/18 00:43:54;;;;;;;15.35;5.63;;;;;;;9.49;62.16;102652.44;5071865;28;20025;-67
2023/05/18 00:46:23;;;;;;;11.90;5.28;;;;;;;9.70;61.88;102656.25;5071090;28;20028;-67
2023/05/18 00:48:53;;;;;;;13.25;5.60;;;;;;;9.70;61.96;102653.59;5070451;28;20463;-67
2023/05/18 00:51:24;;;;;;;16.70;4.88;;;;;;;9.75;62.00;102654.34;5071361;28;20102;-67
2023/05/18 00:53:52;;;;;;;10.50;4.68;;;;;;;9.55;62.30;102659.38;5071772;28;20040;-68
2023/05/18 00:56:18;;;;;;;9.48;5.32;;;;;;;9.53;62.56;102651.47;5071486;28;20073;-67
2023/05/18 00:58:44;;;;;;;10.18;5.13;;;;;;;9.50;62.88;102650.66;5071609;28;20097;-67
2023/05/18 01:01:10;;;;;;;13.18;5.72;;;;;;;9.35;63.38;102657.28;5071574;28;20017;-67
2023/05/18 01:03:38;;;;;;;11.32;5.22;;;;;;;9.43;63.10;102649.97;5070146;28;20043;-67
2023/05/18 01:06:04;;;;;;;11.02;5.22;;;;;;;9.32;63.30;102658.28;5071448;28;20021;-67
2023/05/18 01:08:31;;;;;;;10.18;4.60;;;;;;;9.54;62.90;102661.16;5070944;28;20024;-67
2023/05/18 01:11:13;;;;;;;14.48;5.82;;;;;;;9.28;63.70;102658.41;5071447;28;20039;-67
2023/05/18 01:13:53;;;;;;;14.35;5.65;;;;;;;9.39;63.67;102658.97;5071393;28;20376;-67
2023/05/18 01:16:25;;;;;;;15.63;5.72;;;;;;;9.13;64.14;102658.84;5071240;28;20426;-67
2023/05/18 01:18:59;;;;;;;11.27;5.13;;;;;;;9.23;63.96;102665.63;5071426;28;20519;-67
2023/05/18 01:21:42;;;;;;;10.52;5.00;;;;;;;9.30;63.92;102664.53;5069536;28;20035;-67
2023/05/18 01:24:37;;;;;;;19.63;5.90;;;;;;;9.17;64.28;102669.31;5070260;28;20115;-67
2023/05/18 01:27:06;;;;;;;11.90;5.65;;;;;;;8.98;64.62;102661.00;5071204;28;20178;-67
2023/05/18 01:29:34;;;;;;;8.30;4.40;;;;;;;9.20;64.66;102669.22;5071025;28;20031;-67
2023/05/18 01:32:00;;;;;;;9.82;5.55;;;;;;;9.01;65.24;102657.38;5070036;28;20490;-67
2023/05/18 01:34:26;;;;;;;13.25;5.28;;;;;;;9.01;64.74;102660.91;5075026;28;20113;-67
2023/05/18 01:36:54;;;;;;;11.25;5.10;;;;;;;8.91;65.32;102667.34;5074133;28;20127;-67
2023/05/18 01:39:20;;;;;;;10.18;5.45;;;;;;;8.89;65.24;102661.25;5074847;28;20039;-67
2023/05/18 01:42:05;;;;;;;11.50;5.80;;;;;;;8.87;65.17;102663.06;5074912;28;20032;-67
2023/05/18 01:44:56;;;;;;;12.93;5.22;;;;;;;9.05;64.87;102664.34;5073304;28;20033;-67
2023/05/18 01:47:29;;;;;;;15.65;6.20;;;;;;;8.88;65.61;102664.78;5074288;28;20027;-67
2023/05/18 01:50:03;;;;;;;8.20;4.97;;;;;;;8.93;65.10;102664.69;5074735;28;20020;-67
2023/05/18 01:52:36;;;;;;;12.63;5.05;;;;;;;8.84;65.96;102668.44;5074239;28;20031;-67
2023/05/18 01:55:03;;;;;;;10.50;5.45;;;;;;;8.84;65.85;102669.31;5074767;28;20031;-67
2023/05/18 01:57:32;;;;;;;12.15;5.72;;;;;;;8.84;65.81;102671.09;5074172;28;20020;-67
2023/05/18 01:59:58;;;;;;;8.15;4.75;;;;;;;8.89;65.97;102674.50;5074463;28;20108;-67
2023/05/18 02:02:25;;;;;;;11.43;4.80;;;;;;;9.01;65.50;102662.69;5073019;28;20506;-67
2023/05/18 02:04:53;;;;;;;16.15;5.53;;;;;;;8.77;66.12;102667.75;5073315;28;20020;-67
2023/05/18 02:07:19;;;;;;;10.27;5.53;;;;;;;8.83;65.46;102656.97;5072513;28;20035;-67
2023/05/18 02:09:45;;;;;;;13.52;5.60;;;;;;;8.71;65.97;102659.94;5074369;28;20028;-67
2023/05/18 02:12:10;;;;;;;10.43;5.03;;;;;;;8.87;65.85;102655.97;5074078;28;20047;-67
2023/05/18 02:14:36;;;;;;;12.77;4.78;;;;;;;8.86;65.51;102667.50;5074524;28;20033;-67
2023/05/18 02:17:02;;;;;;;10.38;5.80;;;;;;;8.79;65.28;102644.69;5073782;28;20032;-67
2023/05/18 02:19:29;;;;;;;11.40;5.97;;;;;;;8.71;65.79;102656.44;5073940;28;20479;-67
2023/05/18 02:21:56;;;;;;;7.68;4.60;;;;;;;8.90;65.42;102651.50;5073659;28;20056;-67
2023/05/18 02:24:24;;;;;;;10.52;5.40;;;;;;;8.63;66.74;102657.50;5074040;28;20024;-67
2023/05/18 02:26:50;;;;;;;11.20;5.07;;;;;;;8.86;65.88;102656.03;5073428;28;20032;-67
2023/05/18 02:29:16;;;;;;;11.13;4.95;;;;;;;8.76;66.00;102643.91;5074026;28;20567;-67
2023/05/18 02:31:41;;;;;;;13.50;5.88;;;;;;;8.78;65.97;102642.94;5073922;28;20020;-67
2023/05/18 02:34:07;;;;;;;9.43;5.03;;;;;;;8.87;65.49;102645.34;5074296;28;20036;-67
2023/05/18 02:36:38;;;;;;;9.88;4.88;;;;;;;8.83;65.84;102646.34;5073028;28;20024;-67
2023/05/18 02:39:11;;;;;;;14.23;4.88;;;;;;;8.75;65.37;102632.41;5073945;28;20090;-67
2023/05/18 02:41:38;;;;;;;16.67;5.75;;;;;;;8.47;66.70;102639.34;5073299;28;20070;-67
2023/05/18 02:44:04;;;;;;;12.70;5.35;;;;;;;8.68;66.20;102648.53;5073298;28;20023;-67
2023/05/18 02:46:30;;;;;;;15.60;5.82;;;;;;;8.74;65.70;102645.75;5073423;28;20016;-67
2023/05/18 02:48:59;;;;;;;8.95;4.88;;;;;;;8.75;66.50;102640.38;5073677;28;20027;-67
2023/05/18 02:51:31;;;;;;;7.72;4.28;;;;;;;8.77;65.79;102635.91;5071628;28;20024;-67
2023/05/18 02:53:57;;;;;;;9.05;5.50;;;;;;;8.60;66.63;102644.31;5073503;28;20025;-67
2023/05/18 02:56:23;;;;;;;13.23;5.03;;;;;;;8.51;66.86;102641.91;5071880;28;20517;-67
2023/05/18 02:58:49;;;;;;;7.57;5.03;;;;;;;8.35;67.52;102645.78;5073550;28;20384;-67
2023/05/18 03:01:14;;;;;;;8.10;4.95;;;;;;;8.54;66.67;102635.66;5073304;28;20026;-67
2023/05/18 03:03:40;;;;;;;9.68;4.45;;;;;;;8.55;66.81;102645.34;5073441;28;20013;-67
2023/05/18 03:06:07;;;;;;;13.20;6.22;;;;;;;8.42;66.64;102642.13;5071973;28;20024;-67
2023/05/18 03:08:32;;;;;;;11.57;4.78;;;;;;;8.55;66.57;102642.69;5071533;28;20113;-67
2023/05/18 03:10:58;;;;;;;10.80;4.72;;;;;;;8.52;66.90;102653.38;5072984;28;20033;-67
2023/05/18 03:13:24;;;;;;;12.77;5.75;;;;;;;8.35;67.34;102640.50;5071729;28;20123;-67
2023/05/18 03:15:50;;;;;;;9.00;4.47;;;;;;;8.45;67.01;102647.34;5073172;28;20036;-67
2023/05/18 03:18:17;;;;;;;7.47;4.65;;;;;;;8.39;67.09;102637.78;5073007;28;20016;-67
2023/05/18 03:20:43;;;;;;;7.38;4.10;;;;;;;8.41;67.16;102643.91;5071756;28;20025;-67
2023/05/18 03:23:11;;;;;;;13.13;4.90;;;;;;;8.36;67.26;102634.31;5071155;28;20162;-67
2023/05/18 03:25:36;;;;;;;11.02;5.38;;;;;;;8.23;67.78;102644.31;5071429;28;20031;-67
2023/05/18 03:28:05;;;;;;;10.70;5.32;;;;;;;8.31;67.48;102650.31;5072658;28;20387;-67
2023/05/18 03:30:32;;;;;;;14.07;5.13;;;;;;;8.29;67.70;102645.94;5072664;28;20059;-68
2023/05/18 03:32:58;;;;;;;7.15;5.10;;;;;;;8.24;67.72;102642.56;5072582;28;20315;-67
2023/05/18 03:35:26;;;;;;;8.48;4.75;;;;;;;8.26;67.75;102649.53;5071390;28;20502;-68
2023/05/18 03:37:52;;;;;;;9.15;4.85;;;;;;;8.19;67.41;102640.00;5071896;28;20392;-67
2023/05/18 03:40:18;;;;;;;10.98;6.38;;;;;;;7.99;68.12;102647.56;5072343;28;20134;-67
2023/05/18 03:42:43;;;;;;;10.43;5.30;;;;;;;8.03;68.34;102650.13;5072488;28;20021;-68
2023/05/18 03:45:10;;;;;;;7.70;4.22;;;;;;;8.25;67.54;102644.28;5071465;28;20051;-68
2023/05/18 03:47:36;;;;;;;12.20;5.47;;;;;;;8.03;68.49;102652.75;5072026;28;20032;-67
2023/05/18 03:50:02;;;;;;;8.02;4.70;;;;;;;8.05;68.39;102644.75;5071153;28;20028;-68
2023/05/18 03:52:28;;;;;;;13.15;5.50;;;;;;;8.01;68.59;102651.91;5071633;28;20073;-67
2023/05/18 03:54:55;;;;;;;13.50;5.07;;;;;;;8.03;68.43;102651.88;5072223;28;20025;-68
2023/05/18 03:57:20;;;;;;;8.77;4.95;;;;;;;7.99;68.72;102653.72;5071314;28;20024;-67
2023/05/18 03:59:46;;;;;;;11.57;5.75;;;;;;;7.97;68.69;102647.56;5072308;28;20075;-68
2023/05/18 04:02:11;;;;;;;14.32;6.43;;;;;;;7.95;68.91;102652.06;5070879;28;20415;-68
2023/05/18 04:04:44;;;;;;;10.43;5.57;;;;;;;8.00;68.69;102655.50;5070907;28;20373;-68
2023/05/18 04:07:11;;;;;;;9.65;5.20;;;;;;;7.94;68.98;102652.94;5070427;28;20506;-67
2023/05/18 04:09:37;;;;;;;10.30;5.15;;;;;;;8.03;68.81;102659.81;5071831;28;20024;-67
2023/05/18 04:12:03;;;;;;;10.68;5.30;;;;;;;7.99;68.86;102664.31;5072043;28;20115;-68
2023/05/18 04:14:31;;;;;;;10.70;5.43;;;;;;;8.07;68.84;102664.16;5071942;28;20107;-68
2023/05/18 04:17:03;;;;;;;11.90;6.63;;;;;;;8.10;68.68;102666.72;5071957;28;20031;-68
2023/05/18 04:19:30;;;;;;;11.80;6.03;;;;;;;7.95;69.11;102666.19;5071804;28;20035;-68
2023/05/18 04:21:55;;;;;;;11.95;5.93;;;;;;;8.00;68.88;102674.03;5070090;28;20123;-68
2023/05/18 04:24:21;;;;;;;12.27;5.88;;;;;;;8.09;69.65;102670.28;5071761;28;20107;-68
2023/05/18 04:26:49;;;;;;;11.27;5.63;;;;;;;8.08;69.01;102669.41;5071690;28;20033;-68
2023/05/18 04:29:16;;;;;;;11.32;5.63;;;;;;;8.06;69.15;102678.28;5072015;28;20060;-67
2023/05/18 04:31:43;;;;;;;14.02;5.55;;;;;;;8.17;68.99;102674.47;5070561;28;20024;-67
2023/05/18 04:34:12;;;;;;;17.98;5.85;;;;;;;8.16;69.12;102677.19;5071851;28;20032;-68
2023/05/18 04:36:42;;;;;;;9.35;5.72;;;;;;;8.06;69.38;102670.34;5070847;28;20131;-67
2023/05/18 04:39:11;;;;;;;14.77;6.72;;;;;;;8.15;68.51;102681.63;5072217;28;20078;-67
2023/05/18 04:41:40;;;;;;;9.18;5.30;;;;;;;8.13;68.67;102682.56;5071389;28;20475;-67
2023/05/18 04:44:08;;;;;;;12.32;5.93;;;;;;;8.19;69.17;102683.28;5071760;28;20078;-67
2023/05/18 04:46:38;;;;;;;11.82;4.85;;;;;;;8.32;67.98;102680.34;5069815;28;20025;-67
2023/05/18 04:49:04;;;;;;;11.73;5.35;;;;;;;8.21;68.39;102672.66;5070476;28;20064;-67
2023/05/18 04:51:29;;;;;;;14.00;5.55;;;;;;;8.27;68.19;102683.09;5069463;28;20029;-67
2023/05/18 04:53:54;;;;;;;14.27;6.80;;;;;;;8.15;68.28;102683.41;5070466;28;20127;-68
2023/05/18 04:56:21;;;;;;;14.27;5.63;;;;;;;8.25;68.67;102684.06;5071568;28;20025;-68
2023/05/18 04:58:47;;;;;;;17.92;5.05;;;;;;;8.33;68.37;102693.56;5071649;28;20078;-67
2023/05/18 05:01:14;;;;;;;15.52;6.60;;;;;;;8.20;69.12;102687.66;5070036;28;20566;-67
2023/05/18 05:03:40;;;;;;;14.68;6.70;;;;;;;8.07;68.43;102678.28;5070340;28;20051;-68
2023/05/18 05:06:06;;;;;;;12.85;5.28;;;;;;;8.32;68.60;102688.28;5070062;28;20021;-68
2023/05/18 05:08:31;;;;;;;13.77;5.57;;;;;;;8.31;68.88;102687.41;5073458;28;20032;-67
2023/05/18 05:11:00;;;;;;;10.43;5.60;;;;;;;8.34;68.57;102689.13;5074322;28;20028;-68
2023/05/18 05:13:25;;;;;;;11.48;6.13;;;;;;;8.41;68.64;102681.03;5075312;28;20032;-68
2023/05/18 05:15:51;;;;;;;12.57;7.28;;;;;;;8.16;68.95;102691.31;5075342;28;20028;-67
2023/05/18 05:18:19;;;;;;;12.18;6.13;;;;;;;8.41;69.05;102696.03;5075344;28;20443;-68
2023/05/18 05:20:44;;;;;;;14.82;6.30;;;;;;;8.40;69.09;102691.66;5075037;28;20111;-67
2023/05/18 05:23:10;;;;;;;15.60;6.75;;;;;;;8.44;68.35;102688.00;5073663;28;20107;-67
2023/05/18 05:25:35;;;;;;;10.43;5.78;;;;;;;8.50;67.73;102694.94;5075121;28;20063;-67
2023/05/18 05:28:00;;;;;;;15.68;7.38;;;;;;;8.59;67.78;102692.09;5073576;28;20040;-67
2023/05/18 05:30:26;;;;;;;15.75;6.53;;;;;;;8.53;67.88;102685.16;5073703;28;20059;-67
2023/05/18 05:32:51;;;;;;;17.08;6.50;;;;;;;8.55;68.08;102690.41;5074962;28;20021;-67
2023/05/18 05:35:17;;;;;;;10.85;5.70;;;;;;;8.49;67.54;102683.47;5074790;28;20078;-67
2023/05/18 05:37:42;;;;;;;12.48;6.28;;;;;;;8.48;68.03;102689.69;5074159;28;20051;-67
2023/05/18 05:40:08;;;;;;;15.73;6.72;;;;;;;8.57;67.86;102689.47;5075004;28;20028;-67
2023/05/18 05:42:38;;;;;;;14.02;6.22;;;;;;;8.69;67.33;102693.59;5074498;28;20387;-67
2023/05/18 05:45:04;;;;;;;;;;;;;;;8.79;66.92;102696.88;5075129;28;20036;-67
2023/05/18 05:47:30;;;;;;;11.65;5.35;;;;;;;8.79;66.92;102691.56;5073933;28;19917;-67
2023/05/18 05:49:55;;;;;;;11.43;6.88;;;;;;;8.75;66.68;102696.09;5056314;28;20506;-67
2023/05/18 05:52:21;;;;;;;13.50;6.80;;;;;;;8.71;67.09;102690.91;5073884;28;20097;-67
2023/05/18 05:54:48;;;;;;;11.93;5.97;;;;;;;8.81;67.39;102689.75;5073045;28;20020;-67
2023/05/18 05:57:14;;;;;;;15.77;6.10;;;;;;;8.91;67.20;102685.06;5074205;28;20031;-67
2023/05/18 05:59:41;;;;;;;14.60;6.80;;;;;;;8.94;66.87;102688.53;5074348;28;21061;-67
2023/05/18 06:02:07;;;;;;;10.63;6.05;;;;;;;9.04;66.61;102699.78;5072844;28;20021;-67
2023/05/18 06:04:32;;;;;;;13.77;7.65;;;;;;;8.90;66.55;102697.47;5073993;28;20035;-67
2023/05/18 06:06:57;;;;;;;16.67;7.70;;;;;;;8.92;66.65;102685.03;5073700;28;20439;-67
2023/05/18 06:09:23;;;;;;;15.07;8.27;;;;;;;8.87;66.09;102694.91;5056170;28;20124;-67
2023/05/18 06:11:48;;;;;;;19.00;6.50;;;;;;;9.02;65.83;102696.28;5073908;28;20434;-67
2023/05/18 06:14:16;;;;;;;9.93;6.18;;;;;;;9.18;65.22;102696.75;5072836;28;20028;-67
2023/05/18 06:16:44;;;;;;;11.73;7.28;;;;;;;9.15;64.99;102692.38;5072900;28;20111;-67
2023/05/18 06:19:09;;;;;;;15.10;7.38;;;;;;;9.21;64.68;102684.25;5073011;28;20025;-67
2023/05/18 06:21:35;;;;;;;14.90;7.22;;;;;;;9.22;64.92;102695.75;5073436;28;20427;-67
2023/05/18 06:24:03;;;;;;;17.52;7.45;;;;;;;9.39;65.28;102695.28;5072717;28;20029;-67
2023/05/18 06:26:28;;;;;;;10.25;6.20;;;;;;;9.38;63.66;102698.81;5073602;28;20069;-67
2023/05/18 06:28:54;;;;;;;15.48;7.50;;;;;;;9.25;63.54;102693.88;5055954;28;20024;-67
2023/05/18 06:31:19;;;;;;;14.50;7.45;;;;;;;9.36;63.78;102692.72;5073511;28;20471;-67
2023/05/18 06:33:45;;;;;;;13.75;7.00;;;;;;;9.53;63.72;102695.75;5072187;28;20111;-67
2023/05/18 06:36:12;;;;;;;13.00;7.68;;;;;;;9.48;63.26;102701.19;5072708;28;20053;-67
2023/05/18 06:38:40;;;;;;;15.45;7.05;;;;;;;9.57;62.93;102700.06;5071681;28;20106;-67
2023/05/18 06:41:05;;;;;;;13.85;6.47;;;;;;;9.70;62.85;102704.06;5073525;28;20036;-67
2023/05/18 06:43:30;;;;;;;10.43;6.57;;;;;;;9.85;62.59;102700.09;5073434;28;20089;-67
2023/05/18 06:45:56;;;;;;;14.95;8.38;;;;;;;9.92;63.19;102699.00;5073232;28;20402;-67
2023/05/18 06:48:25;;;;;;;17.92;7.25;;;;;;;9.93;63.00;102708.72;5071887;28;20028;-68
2023/05/18 06:50:51;;;;;;;17.40;7.35;;;;;;;10.20;61.82;102706.09;5073412;28;20085;-67
2023/05/18 06:53:16;;;;;;;15.07;7.20;;;;;;;10.21;61.93;102703.41;5072914;28;20021;-67
2023/05/18 06:55:45;;;;;;;14.90;7.10;;;;;;;10.39;61.91;102706.44;5072346;28;20094;-67
2023/05/18 06:58:13;;;;;;;15.90;6.82;;;;;;;10.39;59.62;102706.44;5073346;28;20016;-67
2023/05/18 07:00:38;;;;;;;12.43;7.30;;;;;;;10.54;60.15;102703.28;5073175;28;20028;-67
2023/05/18 07:03:04;;;;;;;11.25;7.07;;;;;;;10.77;60.49;102699.84;5071563;28;20020;-67
2023/05/18 07:05:30;;;;;;;17.20;7.10;;;;;;;10.74;59.50;102691.09;5073026;28;20028;-65
2023/05/18 07:07:55;;;;;;;13.95;6.82;;;;;;;10.99;59.13;102705.28;5072691;28;20495;-67
2023/05/18 07:10:21;;;;;;;15.05;6.70;;;;;;;11.02;58.19;102717.63;5073449;28;20421;-67
2023/05/18 07:12:49;;;;;;;12.40;6.55;;;;;;;10.96;57.22;102718.72;5071500;28;20024;-67
2023/05/18 07:15:17;;;;;;;14.82;6.93;;;;;;;11.16;58.78;102725.16;5073188;28;20028;-67
2023/05/18 07:17:43;;;;;;;12.77;6.40;;;;;;;11.27;58.57;102720.31;5071192;28;20090;-67
2023/05/18 07:20:09;;;;;;;13.65;6.13;;;;;;;11.54;57.27;102721.09;5071871;28;20029;-67
2023/05/18 07:22:35;;;;;;;13.25;6.68;;;;;;;11.73;57.10;102721.25;5070893;28;20027;-67
2023/05/18 07:25:00;;;;;;;14.57;6.30;;;;;;;11.82;56.93;102723.56;5071406;28;20027;-67
2023/05/18 07:27:26;;;;;;;12.25;6.38;;;;;;;11.81;57.57;102722.72;5072495;28;20025;-67
2023/05/18 07:29:54;;;;;;;17.05;6.93;;;;;;;11.87;57.22;102724.31;5072633;28;20386;-67
2023/05/18 07:32:20;;;;;;;15.43;7.50;;;;;;;11.78;56.03;102727.28;5072191;28;20020;-67
2023/05/18 07:34:46;;;;;;;14.32;6.90;;;;;;;11.83;55.93;102730.66;5071078;28;20020;-67
2023/05/18 07:37:14;;;;;;;13.32;6.90;;;;;;;11.94;57.00;102719.59;5071378;28;20032;-67
2023/05/18 07:39:40;;;;;;;13.77;6.90;;;;;;;12.17;57.53;102737.38;5070882;28;20036;-67
2023/05/18 07:42:10;;;;;;;14.63;6.55;;;;;;;12.24;56.69;102730.88;5071354;28;20407;-67
2023/05/18 07:44:37;;;;;;;;;;;;;;;12.55;55.00;102727.81;5072098;28;20021;-67
2023/05/18 07:47:03;;;;;;;13.45;6.85;;;;;;;12.46;54.32;102747.75;5071927;28;19917;-67
2023/05/18 07:49:29;;;;;;;14.00;6.75;;;;;;;12.51;54.75;102742.25;5071105;28;20035;-67
2023/05/18 07:51:57;;;;;;;15.98;7.13;;;;;;;12.42;53.76;102743.47;5070510;28;20031;-67
2023/05/18 07:54:22;;;;;;;14.18;6.93;;;;;;;12.67;54.46;102748.66;5070918;28;20392;-67
2023/05/18 07:56:47;;;;;;;16.20;7.43;;;;;;;12.76;54.91;102733.22;5070529;28;20020;-67
2023/05/18 07:59:13;;;;;;;12.68;6.97;;;;;;;12.72;54.12;102743.16;5069801;28;20017;-67
2023/05/18 08:01:43;;;;;;;14.20;6.95;;;;;;;12.77;53.29;102751.00;5071584;28;20467;-67
2023/05/18 08:04:09;;;;;;;12.30;6.95;;;;;;;12.99;52.86;102749.13;5053951;28;20017;-67
2023/05/18 08:06:34;;;;;;;13.75;7.18;;;;;;;13.16;52.96;102753.75;5103950;28;20039;-67
2023/05/18 08:09:03;;;;;;;14.93;6.82;;;;;;;13.19;52.66;102751.81;5070856;28;20086;-67
2023/05/18 08:11:28;;;;;;;15.88;6.82;;;;;;;13.32;52.06;102748.63;5072120;28;20032;-67
2023/05/18 08:13:53;;;;;;;17.17;7.00;;;;;;;13.43;52.27;102745.50;5071863;28;20047;-67
2023/05/18 08:16:19;;;;;;;16.88;6.95;;;;;;;13.41;51.34;102748.22;5071478;28;20056;-67
2023/05/18 08:18:44;;;;;;;15.27;7.13;;;;;;;13.52;51.60;102747.75;5071927;28;20020;-67
2023/05/18 08:21:12;;;;;;;14.38;6.25;;;;;;;13.33;50.84;102723.66;5071939;28;20093;-67
2023/05/18 08:23:38;;;;;;;14.13;6.18;;;;;;;13.34;50.65;102750.31;5071548;28;20025;-67
2023/05/18 08:26:04;;;;;;;11.68;6.43;;;;;;;13.36;50.45;102751.09;5070529;28;20031;-67
2023/05/18 08:28:30;;;;;;;13.32;6.88;;;;;;;13.42;50.42;102744.63;5070346;28;20024;-67
2023/05/18 08:30:55;;;;;;;16.85;7.28;;;;;;;13.33;50.48;102743.22;5071698;28;20108;-67
2023/05/18 08:33:22;;;;;;;15.70;6.53;;;;;;;13.31;50.44;102739.75;5071776;28;20040;-67
2023/05/18 08:35:50;;;;;;;17.02;6.90;;;;;;;13.31;50.62;102729.06;5071665;28;20052;-67
2023/05/18 08:38:18;;;;;;;12.98;6.60;;;;;;;13.32;51.19;102732.59;5103834;28;20068;-68
2023/05/18 08:41:02;;;;;;;15.75;6.93;;;;;;;13.35;50.75;102722.66;5070465;28;20045;-67
2023/05/18 08:43:32;;;;;;;10.95;6.22;;;;;;;13.30;50.77;102721.97;5067832;28;20026;-67
2023/05/18 08:46:12;;;;;;;12.43;6.60;;;;;;;13.54;50.38;102725.34;5083236;28;20027;-67
2023/05/18 08:48:38;;;;;;;15.05;6.47;;;;;;;13.82;49.16;102724.97;5071011;28;20021;-68
2023/05/18 08:51:05;;;;;;;16.77;7.00;;;;;;;13.95;48.75;102721.72;5069790;28;20353;-66
2023/05/18 08:53:32;;;;;;;15.93;6.45;;;;;;;13.88;50.72;102712.22;5069235;28;20025;-67
2023/05/18 08:55:59;;;;;;;13.55;5.72;;;;;;;14.15;49.17;102718.97;5070931;28;20044;-67
2023/05/18 08:58:37;;;;;;;13.32;5.65;;;;;;;13.92;48.07;102717.38;5070649;28;20012;-67
2023/05/18 09:01:03;;;;;;;14.27;6.28;;;;;;;13.99;47.91;102710.78;5070967;28;20107;-66
2023/05/18 09:03:30;;;;;;;13.60;6.43;;;;;;;13.81;47.97;102715.19;5069574;28;20025;-66
2023/05/18 09:05:58;;;;;;;14.73;6.03;;;;;;;14.11;47.72;102716.50;5071074;28;20044;-67
2023/05/18 09:08:28;;;;;;;14.68;5.43;;;;;;;14.07;46.65;102707.75;5068901;28;20111;-68
2023/05/18 09:10:56;;;;;;;18.83;6.28;;;;;;;14.08;47.09;102715.69;5069349;28;20019;-67
2023/05/18 09:13:21;;;;;;;15.98;5.70;;;;;;;13.97;47.41;102712.69;5082889;28;20392;-66
2023/05/18 09:15:47;;;;;;;21.98;5.75;;;;;;;14.18;46.42;102705.44;5049911;28;20384;-67
2023/05/18 09:18:13;;;;;;;13.65;5.32;;;;;;;14.43;46.12;102706.88;5051320;28;20025;-66
2023/05/18 09:20:38;;;;;;;17.85;5.82;;;;;;;14.68;46.44;102706.59;5051490;28;20029;-67
2023/05/18 09:23:06;;;;;;;13.18;4.75;;;;;;;14.97;44.75;102710.41;5050678;28;20059;-67
2023/05/18 09:25:35;;;;;;;13.60;5.10;;;;;;;15.11;43.96;102696.31;5061096;28;20099;-67
2023/05/18 09:28:04;;;;;;;14.38;5.95;;;;;;;15.35;43.55;102699.50;5070060;28;20611;-67
2023/05/18 09:30:38;;;;;;;14.07;4.55;;;;;;;15.54;42.67;102705.63;5070964;28;20111;-66
2023/05/18 09:33:04;;;;;;;13.68;5.57;;;;;;;15.77;42.31;102703.53;5070603;28;20028;-67
2023/05/18 09:35:33;;;;;;;14.88;5.35;;;;;;;15.55;41.72;102703.78;5069603;28;20032;-66
2023/05/18 09:38:03;;;;;;;14.13;5.95;;;;;;;15.49;42.71;102704.13;5068594;28;20495;-66
2023/05/18 09:40:28;;;;;;;14.48;5.20;;;;;;;15.57;42.86;102708.13;5069008;28;20043;-66
2023/05/18 09:42:54;;;;;;;11.43;5.18;;;;;;;15.74;42.70;102704.56;5068002;28;20021;-66
2023/05/18 09:45:27;;;;;;;10.02;5.15;;;;;;;15.63;42.31;102704.25;5069605;28;20016;-67
2023/05/18 09:47:53;;;;;;;10.32;5.47;;;;;;;15.91;40.90;102703.59;5070793;28;20046;-66
2023/05/18 09:50:22;;;;;;;13.93;5.05;;;;;;;15.64;41.42;102697.91;5069941;28;20479;-66
2023/05/18 09:52:48;;;;;;;13.10;5.43;;;;;;;15.95;42.31;102701.63;5052454;28;20364;-66
2023/05/18 09:55:20;;;;;;;15.20;4.43;;;;;;;16.31;41.37;102699.53;5072914;28;20441;-67
2023/05/18 09:57:48;;;;;;;14.00;5.00;;;;;;;16.47;41.18;102702.22;5074176;28;20167;-67
2023/05/18 10:00:18;;;;;;;13.27;5.00;;;;;;;16.47;39.35;102701.31;5073432;28;20055;-66
2023/05/18 10:02:50;;;;;;;13.35;4.90;;;;;;;16.39;39.59;102693.72;5073146;28;20074;-66
2023/05/18 10:05:21;;;;;;;13.00;4.70;;;;;;;16.65;38.61;102688.63;5074385;28;20063;-66
2023/05/18 10:07:47;;;;;;;13.10;4.70;;;;;;;16.84;38.60;102699.19;5073756;28;20021;-66
2023/05/18 10:10:17;;;;;;;18.73;6.15;;;;;;;16.95;38.65;102684.16;5073210;28;20096;-66
2023/05/18 10:12:42;;;;;;;15.63;6.18;;;;;;;16.92;39.24;102692.41;5072906;28;20029;-66
2023/05/18 10:15:09;;;;;;;14.18;5.55;;;;;;;17.18;39.95;102693.50;5074557;28;20090;-66
2023/05/18 10:17:37;;;;;;;15.18;4.75;;;;;;;17.34;38.67;102679.97;5074161;28;20056;-66
2023/05/18 10:20:07;;;;;;;13.02;4.90;;;;;;;17.33;38.19;102675.56;5056333;28;20020;-65
2023/05/18 10:22:35;;;;;;;8.75;4.45;;;;;;;17.40;37.37;102673.34;5073770;28;20025;-66
2023/05/18 10:25:06;;;;;;;9.65;4.72;;;;;;;17.47;39.37;102666.59;5067267;28;20012;-66
2023/05/18 10:27:35;;;;;;;13.85;4.95;;;;;;;17.67;38.23;102678.78;5073163;28;20025;-66
2023/05/18 10:30:03;;;;;;;12.30;4.75;;;;;;;17.76;38.35;102670.13;5073650;28;20552;-67
2023/05/18 10:32:29;;;;;;;11.98;4.78;;;;;;;17.81;37.78;102676.13;5071821;28;20077;-65
2023/05/18 10:34:56;;;;;;;9.18;4.78;;;;;;;17.84;37.61;102675.06;5073402;28;20032;-66
2023/05/18 10:37:23;;;;;;;14.77;5.53;;;;;;;17.77;36.16;102679.94;5071232;28;20068;-66
2023/05/18 10:39:53;;;;;;;14.30;4.88;;;;;;;17.47;37.64;102661.22;5072993;28;20032;-66
2023/05/18 10:42:20;;;;;;;13.07;5.35;;;;;;;17.46;38.01;102663.03;5073096;28;20028;-66
2023/05/18 10:44:46;;;;;;;14.85;5.03;;;;;;;17.25;38.82;102656.34;5071970;28;20055;-66
2023/05/18 10:47:13;;;;;;;11.23;4.53;;;;;;;17.05;37.68;102667.47;5071529;28;20036;-66
2023/05/18 10:49:41;;;;;;;14.13;5.50;;;;;;;17.11;38.16;102672.44;5073087;28;20024;-66
2023/05/18 10:52:10;;;;;;;12.27;5.45;;;;;;;16.80;37.35;102672.50;5072401;28;20024;-66
2023/05/18 10:54:36;;;;;;;16.67;5.75;;;;;;;17.21;37.56;102657.50;5072816;28;20028;-66
2023/05/18 10:57:02;;;;;;;11.50;4.40;;;;;;;17.20;37.03;102661.97;5071731;28;20012;-65
2023/05/18 10:59:27;;;;;;;11.75;4.78;;;;;;;17.29;36.31;102663.22;5071398;28;20085;-66
2023/05/18 11:01:55;;;;;;;11.48;4.50;;;;;;;17.26;37.27;102663.44;5072618;28;20059;-66
2023/05/18 11:04:28;;;;;;;11.40;4.95;;;;;;;17.45;37.35;102664.03;5072721;28;20103;-66
2023/05/18 11:06:58;;;;;;;11.50;4.72;;;;;;;17.23;36.94;102660.94;5070428;28;20422;-65
2023/05/18 11:09:25;;;;;;;13.38;5.65;;;;;;;17.24;37.31;102654.63;5071046;28;20499;-65
2023/05/18 11:11:57;;;;;;;10.93;5.38;;;;;;;17.24;37.74;102652.78;5071205;28;20028;-66
2023/05/18 11:14:33;;;;;;;11.90;5.10;;;;;;;17.34;39.06;102653.06;5072620;28;20052;-66
2023/05/18 11:17:27;;;;;;;12.55;5.13;;;;;;;17.51;37.13;102652.00;5071062;28;20016;-66
2023/05/18 11:20:03;;;;;;;12.60;4.68;;;;;;;17.41;36.28;102651.72;5071195;28;20406;-66
2023/05/18 11:22:43;;;;;;;11.23;4.03;;;;;;;17.55;36.32;102647.28;5071775;28;20067;-66
2023/05/18 11:25:32;;;;;;;9.05;4.38;;;;;;;17.57;36.37;102650.75;5071664;28;20024;-66
2023/05/18 11:28:01;;;;;;;12.30;4.68;;;;;;;17.73;36.47;102647.94;5072785;28;20033;-66